CCGS Samuel Risley — CG2960 — position and weather

sailwx.info

Track history (hours):
 
Tides and Currents Weather Stations Pressure Air Temp Water Temp Dewpoint Dewpoint Depression Visibility Wind Speed Wind Dir Waves Ship Positions

CCGS Samuel Risley (Canada)

Medium Navaids Tender - Light Icebreaker

Last reported at 2016-Dec-09 11:00 UTC. Time now 2016-Dec-09 11:46 UTC.
Position N 42°18' W 083°00'.

Length 69.73 m; beam 13.7 m; draft 5.2 m.

Type: SAR. MMSI: 316001890.

Wind from 270 at 8 knots

Air temperature -2.5 ° C
Dewpoint -4.9 ° C

Date/timePositionNaut miles runAvg speedWind from/ knotsBaromVisibWave heightAir tempDewpointWater temp
2016-Dec-09 11:00N 42°18' W 083°00'0 0.0 270 / 8 -2.5-4.9
2016-Dec-09 10:00N 42°18' W 083°00'0 0.0 260 / 9 -2.1-4.9
2016-Dec-09 09:00N 42°18' W 083°00'0 0.0 260 / 8 -2.1-4.7
2016-Dec-09 08:00N 42°18' W 083°00'0 0.0 250 / 7 -1.4-4.4
2016-Dec-09 07:00N 42°18' W 083°00'0 0.0 250 / 9 -1.8-4.7
2016-Dec-09 06:00N 42°18' W 083°00'0 0.0 260 / 11 -2.4-5.0
2016-Dec-09 05:00N 42°18' W 083°00'0 0.0 240 / 6 -2.0-4.9
2016-Dec-09 04:00N 42°18' W 083°00'0 0.0 240 / 7 -2.2-4.9
2016-Dec-09 03:00N 42°18' W 083°00'0 0.0 240 / 7 -2.1-5.1
2016-Dec-09 02:00N 42°18' W 083°00'0 0.0 230 / 6 -1.8-5.3
2016-Dec-09 01:00N 42°18' W 083°00'0 0.0 250 / 12 -1.7-5.3
2016-Dec-09 00:00N 42°18' W 083°00'0 0.0 240 / 9 -1.5-5.2
2016-Dec-08 23:00N 42°18' W 083°00'0 0.0 250 / 13 -1.8-5.8
2016-Dec-08 22:00N 42°18' W 083°00'0 0.0 250 / 12 -2.0-5.5
2016-Dec-08 21:00N 42°18' W 083°00'0 0.0 260 / 13 -1.7-6.0
2016-Dec-08 20:00N 42°18' W 083°00'0 0.0 250 / 13 -2.1-5.7
2016-Dec-08 19:00N 42°18' W 083°00'0 0.0 240 / 8 -2.2-5.0
2016-Dec-08 17:00N 42°18' W 083°00'0 0.0 230 / 10 -1.8-6.0
2016-Dec-08 16:00N 42°18' W 083°00'0 0.0 260 / 14 -1.2-8.1
2016-Dec-08 15:00N 42°18' W 083°00'0 0.0 240 / 8 -1.0-6.1
2016-Dec-08 14:00N 42°18' W 083°00'0 0.0 260 / 11 -1.3-6.7
2016-Dec-08 13:00N 42°18' W 083°00'0 0.0 250 / 13 -1.0-6.3
2016-Dec-08 12:00N 42°18' W 083°00'0 0.0 250 / 12 -1.1-6.4
2016-Dec-08 11:00N 42°18' W 083°00'0 0.0 280 / 13 -1.8-7.7
2016-Dec-08 10:00N 42°18' W 083°00'0 0.0 250 / 9 -0.2-6.1
2016-Dec-08 09:00N 42°18' W 083°00'0 0.0 240 / 10 -0.2-6.4
2016-Dec-08 08:00N 42°18' W 083°00'0 0.0 240 / 9 0.2-6.1
2016-Dec-08 07:00N 42°18' W 083°00'0 0.0 230 / 9 0.2-5.8
2016-Dec-08 06:00N 42°18' W 083°00'0 0.0 230 / 8 0.1-5.6
2016-Dec-08 05:00N 42°18' W 083°00'0 0.0 230 / 9 0.1-5.8
2016-Dec-08 04:00N 42°18' W 083°00'0 0.0 250 / 11 0.9-4.7
2016-Dec-08 03:00N 42°18' W 083°00'0 0.0 250 / 13 0.8-5.0
2016-Dec-08 02:00N 42°18' W 083°00'0 0.0 250 / 12 1.3-4.5
2016-Dec-08 01:00N 42°18' W 083°00'0 0.0 230 / 9 1.4-3.7
2016-Dec-08 00:00N 42°18' W 083°00'0 0.0 230 / 8 1.3-3.6
2016-Dec-07 23:00N 42°18' W 083°00'0 0.0 230 / 8 1.5-3.5
2016-Dec-07 22:00N 42°18' W 083°00'0 0.0 230 / 5 1.8-3.6
2016-Dec-07 21:00N 42°18' W 083°00'0 0.0 230 / 9 2.2-3.7
2016-Dec-07 20:00N 42°18' W 083°00'0 0.0 230 / 7 2.5-3.2
2016-Dec-07 19:00N 42°18' W 083°00'0 0.0 230 / 8 2.9-3.7
2016-Dec-07 18:00N 42°18' W 083°00'0 0.0 230 / 9 2.1-4.1
2016-Dec-07 17:00N 42°18' W 083°00'0 0.0 230 / 6 1.5-4.3
2016-Dec-07 16:00N 42°18' W 083°00'0 0.0 240 / 6 1.3-4.2
2016-Dec-07 15:00N 42°18' W 083°00'0 0.0 230 / 7 0.3-4.4
2016-Dec-07 14:00N 42°18' W 083°00'0 0.0 230 / 4 0.7-3.9
2016-Dec-07 13:00N 42°18' W 083°00'0 0.0 230 / 9 1.1-5.0
2016-Dec-07 12:00N 42°18' W 083°00'0 0.0 230 / 8 0.6-5.0
2016-Dec-07 11:00N 42°18' W 083°00'0 0.0 230 / 7 0.8-3.9
2016-Dec-07 10:00N 42°18' W 083°00'0 0.0 230 / 8 1.5-3.6
2016-Dec-07 09:00N 42°18' W 083°00'0 0.0 230 / 8 1.4-3.4
2016-Dec-07 08:00N 42°18' W 083°00'0 0.0 230 / 8 2.0-2.1
2016-Dec-07 07:00N 42°18' W 083°00'0 0.0 250 / 10 3.1-1.7
2016-Dec-07 06:00N 42°18' W 083°00'0 0.0 270 / 8 3.1-1.1
2016-Dec-07 05:00N 42°18' W 083°00'0 0.0 250 / 10 4.4 0.8
2016-Dec-07 04:00N 42°18' W 083°00'0 0.0 250 / 8 5.1 2.4
2016-Dec-07 03:00N 42°18' W 083°00'0 0.0 250 / 7 5.5 3.1
2016-Dec-07 02:00N 42°18' W 083°00'0 0.0 270 / 6 4.6 3.1
2016-Dec-07 01:00N 42°18' W 083°00'0 0.0 240 / 6 5.5 4.3
2016-Dec-07 00:00N 42°18' W 083°00'0 0.0 4.2 3.9
2016-Dec-06 23:00N 42°18' W 083°00'0 0.0 060 / 5 4.0 3.6
2016-Dec-06 22:00N 42°18' W 083°00'0 0.0 040 / 4 4.0 3.4
2016-Dec-06 21:00N 42°18' W 083°00'0 0.0 020 / 2 4.1 3.2
2016-Dec-06 20:00N 42°18' W 083°00'0 0.0 060 / 6 4.1 2.9
2016-Dec-06 19:00N 42°18' W 083°00'0 0.0 050 / 7 4.2 2.2
2016-Dec-06 18:00N 42°18' W 083°00'0 0.0 060 / 4 5.1 1.5
2016-Dec-06 17:00N 42°18' W 083°00'0 0.0 070 / 7 5.1 1.2
2016-Dec-06 16:00N 42°18' W 083°00'0 0.0 070 / 7 4.7 1.9
2016-Dec-06 15:00N 42°18' W 083°00'4 4.4 060 / 13 4.1 1.7
2016-Dec-06 14:00N 42°18' W 083°06'4 4.4 080 / 13 6.1 2.3
2016-Dec-06 13:00N 42°18' W 083°00'0 0.0 060 / 12 3.6 1.3
2016-Dec-06 12:00N 42°18' W 083°00'0 0.0 060 / 10 3.1 1.0
2016-Dec-06 11:00N 42°18' W 083°00'0 0.0 060 / 8 2.8 0.7
2016-Dec-06 10:00N 42°18' W 083°00'0 0.0 060 / 7 2.8 0.6
2016-Dec-06 09:00N 42°18' W 083°00'0 0.0 060 / 7 3.0 0.6
2016-Dec-06 08:00N 42°18' W 083°00'0 0.0 060 / 7 2.3-0.2
2016-Dec-06 07:00N 42°18' W 083°00'0 0.0 060 / 5 1.8-0.6
2016-Dec-06 06:00N 42°18' W 083°00'0 0.0 090 / 2 1.1-1.5
2016-Dec-06 05:00N 42°18' W 083°00'0 0.0 080 / 3 1.4-1.7
2016-Dec-06 04:00N 42°18' W 083°00'0 0.0 120 / 2 1.1-1.5
2016-Dec-06 03:00N 42°18' W 083°00'0 0.0 2.0-1.2
2016-Dec-06 02:00N 42°18' W 083°00'0 0.0 190 / 1 2.0-1.2
2016-Dec-06 01:00N 42°18' W 083°00'0 0.0 180 / 1 2.5-1.3
2016-Dec-06 00:00N 42°18' W 083°00'4 4.4 230 / 4 3.7-1.3
2016-Dec-05 23:00N 42°18' W 082°54'0 0.0 230 / 91019.0 3.7-1.2
2016-Dec-05 22:00N 42°18' W 082°54'0 0.0 230 / 81018.9 6.3 0.2
2016-Dec-05 21:00N 42°18' W 082°54'7 7.5 220 / 121018.1 4.6-0.1
2016-Dec-05 20:00N 42°24' W 082°48'1110.7 230 / 121017.2 4.9-0.4
2016-Dec-05 19:00N 42°30' W 082°36'1312.8 240 / 81017.4 4.6-0.6
2016-Dec-05 18:00N 42°42' W 082°30'6 6.0 240 / 6 4.4-0.6
2016-Dec-05 17:00N 42°48' W 082°30'7 7.4 250 / 51017.1 4.1-0.2
2016-Dec-05 16:00N 42°54' W 082°24'1818.0 250 / 71016.8 3.9-0.4
2016-Dec-05 15:00N 43°12' W 082°24'1212.0 240 / 91015.9 3.4-0.1
2016-Dec-05 14:00N 43°24' W 082°24'1312.8 250 / 161014.4 3.0 0.4
2016-Dec-05 13:00N 43°36' W 082°18'1212.0 250 / 181013.1 2.6 0.8
2016-Dec-05 12:00N 43°48' W 082°18'1312.8 240 / 231011.0 3.0 1.1
2016-Dec-05 11:00N 44°00' W 082°12'1212.0 250 / 191010.0 3.2 1.3
2016-Dec-05 10:00N 44°12' W 082°12'1312.7 260 / 201009.1 3.8 1.1
2016-Dec-05 09:00N 44°24' W 082°06'1212.0 270 / 151009.0 3.3 1.5
2016-Dec-05 08:00N 44°36' W 082°06'6 6.0 200 / 51009.1 2.1 1.7
2016-Dec-05 07:00N 44°42' W 082°06'1212.0 140 / 201009.3 2.2 1.5
2016-Dec-05 06:00N 44°54' W 082°06'7 7.4 140 / 191010.3 2.0 1.4
2016-Dec-05 05:00N 45°00' W 082°00'1312.7 130 / 221011.0 1.2 0.8
2016-Dec-05 04:00N 45°12' W 081°54'6 6.0 110 / 211011.1 1.6 1.0
2016-Dec-05 03:00N 45°18' W 081°54'8 8.4 080 / 121012.5 1.4 0.9
2016-Dec-05 02:00N 45°18' W 081°42'8 8.4 130 / 121013.9 1.6 0.8
2016-Dec-05 01:00N 45°18' W 081°30'1312.7 090 / 111015.3 1.9 0.9
2016-Dec-05 00:00N 45°18' W 081°12'1312.7 120 / 171017.4 3.6 1.1
2016-Dec-04 23:00N 45°18' W 080°54'1312.7 110 / 141019.1 2.8-0.7
2016-Dec-04 22:00N 45°18' W 080°36'1312.7 090 / 121020.1 1.7-2.5
2016-Dec-04 21:00N 45°18' W 080°18'8 8.4 120 / 101021.4 0.5-4.6
2016-Dec-04 20:00N 45°18' W 080°06'4 4.2 110 / 81022.3 0.9-5.1
2016-Dec-04 19:00N 45°18' W 080°00'4 4.2 120 / 61023.9 -0.2-5.3
2016-Dec-04 18:00N 45°18' W 080°06'8 8.4 100 / 61024.3 -1.8-5.6
2016-Dec-04 17:00N 45°18' W 080°18'8 8.4 080 / 71025.5 -2.9-5.7
2016-Dec-04 16:00N 45°18' W 080°30'1312.7 090 / 81025.9 -2.3-4.6
2016-Dec-04 15:00N 45°06' W 080°36'1312.7 080 / 81025.6 -0.6-3.1
2016-Dec-04 14:00N 44°54' W 080°42'1312.7 050 / 81025.4 1.0-2.1
2016-Dec-04 13:00N 44°42' W 080°48'7 7.4 050 / 101024.8 1.6-1.9
2016-Dec-04 12:00N 44°36' W 080°54'0 0.0 120 / 31025.2 1.0-1.3
2016-Dec-04 11:00N 44°36' W 080°54'0 0.0 050 / 21024.8 1.1-1.7
2016-Dec-04 10:00N 44°36' W 080°54'0 0.0 060 / 31025.2 1.3-1.7
2016-Dec-04 09:00N 44°36' W 080°54'0 0.0 050 / 21025.6 1.6-1.6
2016-Dec-04 08:00N 44°36' W 080°54'0 0.0 060 / 21025.8 1.8-1.0
2016-Dec-04 07:00N 44°36' W 080°54'0 0.0 060 / 31025.5 1.6-0.6
2016-Dec-04 06:00N 44°36' W 080°54'0 0.0 060 / 11025.5 1.7-0.2
2016-Dec-04 05:00N 44°36' W 080°54'0 0.0 060 / 31025.7 1.9 0.1
2016-Dec-04 04:00N 44°36' W 080°54'0 0.0 350 / 31024.6 2.7 0.4
2016-Dec-04 03:00N 44°36' W 080°54'0 0.0 290 / 21024.4 2.4-0.2
2016-Dec-04 02:00N 44°36' W 080°54'0 0.0 330 / 51024.6 2.9 0.1
2016-Dec-04 01:00N 44°36' W 080°54'0 0.0 310 / 11024.7 2.9-0.0
2016-Dec-04 00:00N 44°36' W 080°54'6 6.0 310 / 21024.9 3.5-0.2
2016-Dec-03 23:00N 44°42' W 080°54'1010.4 280 / 91024.5 3.5-0.3
2016-Dec-03 22:00N 44°48' W 080°42'7 7.4 300 / 131023.8 4.1-2.0
2016-Dec-03 21:00N 44°54' W 080°36'1010.4 320 / 101023.4 4.9 0.2
2016-Dec-03 20:00N 45°00' W 080°48'7 7.3 310 / 131022.8 3.6-0.7
2016-Dec-03 19:00N 45°06' W 080°54'1212.0 320 / 111022.4 4.7-0.7
2016-Dec-03 18:00N 45°18' W 080°54'1212.0 330 / 91022.6 2.7-1.9
2016-Dec-03 17:00N 45°30' W 080°54'0 0.0 320 / 111023.1 2.2-1.7
2016-Dec-03 16:00N 45°30' W 080°54'1010.3 320 / 121023.1 1.8-1.9
2016-Dec-03 15:00N 45°24' W 080°42'1010.3 330 / 121023.0 1.6-2.4
2016-Dec-03 14:00N 45°18' W 080°30'1010.3 340 / 111022.2 3.0-1.9
2016-Dec-03 13:00N 45°24' W 080°18'7 7.3 340 / 151021.8 0.3-3.4
2016-Dec-03 12:00N 45°18' W 080°12'8 1.4 320 / 81021.3 -0.3-3.6
2016-Dec-03 06:00N 45°18' W 080°00'0 0.0 300 / 91019.0 0.5-3.3
2016-Dec-03 05:00N 45°18' W 080°00'0 0.0 290 / 121018.4 0.8-3.7
2016-Dec-03 04:00N 45°18' W 080°00'0 0.0 340 / 61018.0 0.2-4.1
2016-Dec-03 03:00N 45°18' W 080°00'0 0.0 330 / 91017.0 0.6-4.3
2016-Dec-03 02:00N 45°18' W 080°00'0 0.0 320 / 91016.4 1.2-3.6
2016-Dec-03 01:00N 45°18' W 080°00'0 0.0 330 / 71015.7 1.4-3.1
2016-Dec-03 00:00N 45°18' W 080°00'0 0.0 300 / 101014.7 2.1-2.3
2016-Dec-02 23:00N 45°18' W 080°00'0 0.0 320 / 71014.1 1.9-2.3
2016-Dec-02 22:00N 45°18' W 080°00'0 0.0 320 / 91013.1 2.0-2.3
2016-Dec-02 21:00N 45°18' W 080°00'0 0.0 280 / 131012.3 3.6-0.0
2016-Dec-02 20:00N 45°18' W 080°00'0 0.0 320 / 61011.2 2.0-0.7
2016-Dec-02 19:00N 45°18' W 080°00'0 0.0 290 / 121010.3 2.7-0.9
2016-Dec-02 18:00N 45°18' W 080°00'0 0.0 290 / 111009.8 5.3-0.6
2016-Dec-02 17:00N 45°18' W 080°00'0 0.0 290 / 131009.8 4.7-0.3
2016-Dec-02 16:00N 45°18' W 080°00'0 0.0 290 / 101009.8 4.8 1.0
2016-Dec-02 15:00N 45°18' W 080°00'0 0.0 300 / 101009.2 1.6-1.2
2016-Dec-02 14:00N 45°18' W 080°00'0 0.0 310 / 101008.8 1.2-1.3
2016-Dec-02 13:00N 45°18' W 080°00'0 0.0 330 / 61008.1 1.2-0.2
2016-Dec-02 12:00N 45°18' W 080°00'0 0.0 290 / 111007.5 1.9 0.5
2016-Dec-02 11:00N 45°18' W 080°00'0 0.0 290 / 91006.7 1.8 0.5
2016-Dec-02 10:00N 45°18' W 080°00'0 0.0 280 / 131005.8 3.4 1.4
2016-Dec-02 09:00N 45°18' W 080°00'0 0.0 290 / 171005.0 4.0 2.6
2016-Dec-02 08:00N 45°18' W 080°00'0 0.0 260 / 161004.6 4.8 3.1
2016-Dec-02 07:00N 45°18' W 080°00'0 0.0 270 / 161004.0 4.8 2.9
2016-Dec-02 06:00N 45°18' W 080°00'0 0.0 270 / 161003.7 5.3 2.8
2016-Dec-02 05:00N 45°18' W 080°00'0 0.0 270 / 181003.5 5.4 3.3
2016-Dec-02 04:00N 45°18' W 080°00'0 0.0 270 / 151003.2 6.0 3.2
2016-Dec-02 03:00N 45°18' W 080°00'0 0.0 260 / 121002.7 5.7 3.8
2016-Dec-02 02:00N 45°18' W 080°00'0 0.0 260 / 131002.5 5.9 3.8
2016-Dec-02 01:00N 45°18' W 080°00'0 0.0 250 / 111002.6 5.9 3.6
2016-Dec-02 00:00N 45°18' W 080°00'0 0.0 240 / 91002.4 5.9 3.3
2016-Dec-01 23:00N 45°18' W 080°00'0 0.0 250 / 111002.3 5.8 2.8
2016-Dec-01 22:00N 45°18' W 080°00'0 0.0 250 / 131001.8 5.5 3.4
2016-Dec-01 21:00N 45°18' W 080°00'0 0.0 250 / 131001.2 5.5 3.4
2016-Dec-01 20:00N 45°18' W 080°00'0 0.0 250 / 101000.5 5.4 3.9
2016-Dec-01 19:00N 45°18' W 080°00'0 0.0 250 / 121000.0 5.2 3.6
2016-Dec-01 18:00N 45°18' W 080°00'0 0.0 250 / 12999.5 5.4 3.9
2016-Dec-01 17:00N 45°18' W 080°00'0 0.0 250 / 13999.5 5.5 3.8
2016-Dec-01 16:00N 45°18' W 080°00'0 0.0 250 / 13999.7 5.4 3.9
2016-Dec-01 15:00N 45°18' W 080°00'0 0.0 250 / 12999.4 5.7 3.9
2016-Dec-01 14:00N 45°18' W 080°00'0 0.0 250 / 11999.2 6.0 3.6
2016-Dec-01 13:00N 45°18' W 080°00'0 0.0 250 / 13998.9 6.1 4.0
2016-Dec-01 12:00N 45°18' W 080°00'0 0.0 250 / 13998.6 6.1 4.2
2016-Dec-01 11:00N 45°18' W 080°00'0 0.0 250 / 15997.8 6.4 4.6
2016-Dec-01 10:00N 45°18' W 080°00'0 0.0 260 / 17997.2 6.7 4.7
2016-Dec-01 09:00N 45°18' W 080°00'0 0.0 260 / 20996.6 6.5 5.7
2016-Dec-01 08:00N 45°18' W 080°00'0 0.0 250 / 11996.2 7.7 7.1
2016-Dec-01 07:00N 45°18' W 080°00'0 0.0 210 / 7995.9 7.3 7.1
2016-Dec-01 06:00N 45°18' W 080°00'0 0.0 270 / 6995.6 7.3 7.2
2016-Dec-01 05:00N 45°18' W 080°00'0 0.0 260 / 10995.4 7.2 7.0
2016-Dec-01 04:00N 45°18' W 080°00'0 0.0 250 / 3995.3 8.4 8.3
2016-Dec-01 03:00N 45°18' W 080°00'0 0.0 190 / 1996.1 8.6 8.5
2016-Dec-01 02:00N 45°18' W 080°00'0 0.0 130 / 2997.0 8.5 8.3
2016-Dec-01 01:00N 45°18' W 080°00'0 0.0 100 / 3997.5 8.5 8.2
2016-Dec-01 00:00N 45°18' W 080°00'0 0.0 100 / 3998.1 8.5 8.2
2016-Nov-30 23:00N 45°18' W 080°00'0 0.0 100 / 7998.5 8.7 8.2
2016-Nov-30 22:00N 45°18' W 080°00'0 0.0 110 / 8999.3 9.0 8.5
2016-Nov-30 21:00N 45°18' W 080°00'0 0.0 120 / 7999.3 9.1 8.4
2016-Nov-30 20:00N 45°18' W 080°00'0 0.0 100 / 5999.9 9.3 8.5
2016-Nov-30 19:00N 45°18' W 080°00'0 0.0 110 / 81000.9 10.5 8.1
2016-Nov-30 18:00N 45°18' W 080°00'0 0.0 130 / 101001.7 11.3 7.9
2016-Nov-30 17:00N 45°18' W 080°00'0 0.0 130 / 91002.1 12.0 7.5
2016-Nov-30 16:00N 45°18' W 080°00'0 0.0 130 / 101003.4 11.3 7.0
2016-Nov-30 15:00N 45°18' W 080°00'0 0.0 120 / 81004.3 10.1 7.1
2016-Nov-30 13:00N 45°18' W 080°00'0 0.0 090 / 71005.2 7.9 6.7
2016-Nov-30 12:00N 45°18' W 080°00'0 0.0 090 / 51005.4 7.4 6.2
2016-Nov-30 11:00N 45°18' W 080°00'0 0.0 090 / 31006.4 6.8 5.8
2016-Nov-30 10:00N 45°18' W 080°00'0 0.0 110 / 31007.2 6.7 5.6
2016-Nov-30 09:00N 45°18' W 080°00'0 0.0 140 / 51007.1 6.3 5.2
2016-Nov-30 08:00N 45°18' W 080°00'0 0.0 140 / 31007.6 6.3 5.1
2016-Nov-30 07:00N 45°18' W 080°00'0 0.0 100 / 51007.9 6.4 5.1
2016-Nov-30 06:00N 45°18' W 080°00'0 0.0 120 / 31008.0 6.5 5.3
2016-Nov-30 05:00N 45°18' W 080°00'0 0.0 110 / 41008.1 7.4 5.4
2016-Nov-30 04:00N 45°18' W 080°00'0 0.0 110 / 61007.9 7.4 5.4
2016-Nov-30 03:00N 45°18' W 080°00'0 0.0 100 / 51007.6 7.9 5.4
2016-Nov-30 02:00N 45°18' W 080°00'0 0.0 130 / 61006.9 8.4 5.3
2016-Nov-30 01:00N 45°18' W 080°00'0 0.0 130 / 61006.4 8.9 5.6
2016-Nov-30 00:00N 45°18' W 080°00'0 0.0 130 / 41006.2 9.3 5.9
2016-Nov-29 23:00N 45°18' W 080°00'0 0.0 140 / 71005.7 10.0 6.1
2016-Nov-29 22:00N 45°18' W 080°00'0 0.0 130 / 51005.0 10.1 6.7
2016-Nov-29 21:00N 45°18' W 080°00'0 0.0 140 / 41004.2 10.6 7.3
2016-Nov-29 20:00N 45°18' W 080°00'0 0.0 180 / 21003.9 11.4 7.6
2016-Nov-29 19:00N 45°18' W 080°00'0 0.0 200 / 71003.4 11.8 7.7
2016-Nov-29 18:00N 45°18' W 080°00'0 0.0 170 / 61003.0 11.1 8.2
2016-Nov-29 17:00N 45°18' W 080°00'0 0.0 170 / 51002.8 9.5 8.0
2016-Nov-29 16:00N 45°18' W 080°00'0 0.0 140 / 91002.6 8.5 7.3
2016-Nov-29 15:00N 45°18' W 080°00'0 0.0 130 / 81002.3 7.5 6.4
2016-Nov-29 14:00N 45°18' W 080°00'0 0.0 130 / 91001.7 6.8 5.7
2016-Nov-29 13:00N 45°18' W 080°00'0 0.0 130 / 101001.2 6.2 5.1
2016-Nov-29 12:00N 45°18' W 080°00'0 0.0 110 / 111001.1 5.1 4.2
2016-Nov-29 11:00N 45°18' W 080°00'   110 / 151001.0 4.5 3.5
Track history (hours):
 
Tides and Currents Weather Stations Pressure Air Temp Water Temp Dewpoint Dewpoint Depression Visibility Wind Speed Wind Dir Waves Ship Positions

CCGS Samuel Risley (Canada)

Medium Navaids Tender - Light Icebreaker

Last reported at 2016-Dec-09 11:00 UTC. Time now 2016-Dec-09 11:46 UTC.
Position N 42°18' W 083°00'.

Length 69.73 m; beam 13.7 m; draft 5.2 m.

Type: SAR. MMSI: 316001890.

Wind from 270 at 8 knots

Air temperature -2.5 ° C
Dewpoint -4.9 ° C

Date/timePositionNaut miles runAvg speedWind from/ knotsBaromVisibWave heightAir tempDewpointWater temp
2016-Dec-09 11:00N 42°18' W 083°00'0 0.0 270 / 8 -2.5-4.9
2016-Dec-09 10:00N 42°18' W 083°00'0 0.0 260 / 9 -2.1-4.9
2016-Dec-09 09:00N 42°18' W 083°00'0 0.0 260 / 8 -2.1-4.7
2016-Dec-09 08:00N 42°18' W 083°00'0 0.0 250 / 7 -1.4-4.4
2016-Dec-09 07:00N 42°18' W 083°00'0 0.0 250 / 9 -1.8-4.7
2016-Dec-09 06:00N 42°18' W 083°00'0 0.0 260 / 11 -2.4-5.0
2016-Dec-09 05:00N 42°18' W 083°00'0 0.0 240 / 6 -2.0-4.9
2016-Dec-09 04:00N 42°18' W 083°00'0 0.0 240 / 7 -2.2-4.9
2016-Dec-09 03:00N 42°18' W 083°00'0 0.0 240 / 7 -2.1-5.1
2016-Dec-09 02:00N 42°18' W 083°00'0 0.0 230 / 6 -1.8-5.3
2016-Dec-09 01:00N 42°18' W 083°00'0 0.0 250 / 12 -1.7-5.3
2016-Dec-09 00:00N 42°18' W 083°00'0 0.0 240 / 9 -1.5-5.2
2016-Dec-08 23:00N 42°18' W 083°00'0 0.0 250 / 13 -1.8-5.8
2016-Dec-08 22:00N 42°18' W 083°00'0 0.0 250 / 12 -2.0-5.5
2016-Dec-08 21:00N 42°18' W 083°00'0 0.0 260 / 13 -1.7-6.0
2016-Dec-08 20:00N 42°18' W 083°00'0 0.0 250 / 13 -2.1-5.7
2016-Dec-08 19:00N 42°18' W 083°00'0 0.0 240 / 8 -2.2-5.0
2016-Dec-08 17:00N 42°18' W 083°00'0 0.0 230 / 10 -1.8-6.0
2016-Dec-08 16:00N 42°18' W 083°00'0 0.0 260 / 14 -1.2-8.1
2016-Dec-08 15:00N 42°18' W 083°00'0 0.0 240 / 8 -1.0-6.1
2016-Dec-08 14:00N 42°18' W 083°00'0 0.0 260 / 11 -1.3-6.7
2016-Dec-08 13:00N 42°18' W 083°00'0 0.0 250 / 13 -1.0-6.3
2016-Dec-08 12:00N 42°18' W 083°00'0 0.0 250 / 12 -1.1-6.4
2016-Dec-08 11:00N 42°18' W 083°00'0 0.0 280 / 13 -1.8-7.7
2016-Dec-08 10:00N 42°18' W 083°00'0 0.0 250 / 9 -0.2-6.1
2016-Dec-08 09:00N 42°18' W 083°00'0 0.0 240 / 10 -0.2-6.4
2016-Dec-08 08:00N 42°18' W 083°00'0 0.0 240 / 9 0.2-6.1
2016-Dec-08 07:00N 42°18' W 083°00'0 0.0 230 / 9 0.2-5.8
2016-Dec-08 06:00N 42°18' W 083°00'0 0.0 230 / 8 0.1-5.6
2016-Dec-08 05:00N 42°18' W 083°00'0 0.0 230 / 9 0.1-5.8
2016-Dec-08 04:00N 42°18' W 083°00'0 0.0 250 / 11 0.9-4.7
2016-Dec-08 03:00N 42°18' W 083°00'0 0.0 250 / 13 0.8-5.0
2016-Dec-08 02:00N 42°18' W 083°00'0 0.0 250 / 12 1.3-4.5
2016-Dec-08 01:00N 42°18' W 083°00'0 0.0 230 / 9 1.4-3.7
2016-Dec-08 00:00N 42°18' W 083°00'0 0.0 230 / 8 1.3-3.6
2016-Dec-07 23:00N 42°18' W 083°00'0 0.0 230 / 8 1.5-3.5
2016-Dec-07 22:00N 42°18' W 083°00'0 0.0 230 / 5 1.8-3.6
2016-Dec-07 21:00N 42°18' W 083°00'0 0.0 230 / 9 2.2-3.7
2016-Dec-07 20:00N 42°18' W 083°00'0 0.0 230 / 7 2.5-3.2
2016-Dec-07 19:00N 42°18' W 083°00'0 0.0 230 / 8 2.9-3.7
2016-Dec-07 18:00N 42°18' W 083°00'0 0.0 230 / 9 2.1-4.1
2016-Dec-07 17:00N 42°18' W 083°00'0 0.0 230 / 6 1.5-4.3
2016-Dec-07 16:00N 42°18' W 083°00'0 0.0 240 / 6 1.3-4.2
2016-Dec-07 15:00N 42°18' W 083°00'0 0.0 230 / 7 0.3-4.4
2016-Dec-07 14:00N 42°18' W 083°00'0 0.0 230 / 4 0.7-3.9
2016-Dec-07 13:00N 42°18' W 083°00'0 0.0 230 / 9 1.1-5.0
2016-Dec-07 12:00N 42°18' W 083°00'0 0.0 230 / 8 0.6-5.0
2016-Dec-07 11:00N 42°18' W 083°00'0 0.0 230 / 7 0.8-3.9
2016-Dec-07 10:00N 42°18' W 083°00'0 0.0 230 / 8 1.5-3.6
2016-Dec-07 09:00N 42°18' W 083°00'0 0.0 230 / 8 1.4-3.4
2016-Dec-07 08:00N 42°18' W 083°00'0 0.0 230 / 8 2.0-2.1
2016-Dec-07 07:00N 42°18' W 083°00'0 0.0 250 / 10 3.1-1.7
2016-Dec-07 06:00N 42°18' W 083°00'0 0.0 270 / 8 3.1-1.1
2016-Dec-07 05:00N 42°18' W 083°00'0 0.0 250 / 10 4.4 0.8
2016-Dec-07 04:00N 42°18' W 083°00'0 0.0 250 / 8 5.1 2.4
2016-Dec-07 03:00N 42°18' W 083°00'0 0.0 250 / 7 5.5 3.1
2016-Dec-07 02:00N 42°18' W 083°00'0 0.0 270 / 6 4.6 3.1
2016-Dec-07 01:00N 42°18' W 083°00'0 0.0 240 / 6 5.5 4.3
2016-Dec-07 00:00N 42°18' W 083°00'0 0.0 4.2 3.9
2016-Dec-06 23:00N 42°18' W 083°00'0 0.0 060 / 5 4.0 3.6
2016-Dec-06 22:00N 42°18' W 083°00'0 0.0 040 / 4 4.0 3.4
2016-Dec-06 21:00N 42°18' W 083°00'0 0.0 020 / 2 4.1 3.2
2016-Dec-06 20:00N 42°18' W 083°00'0 0.0 060 / 6 4.1 2.9
2016-Dec-06 19:00N 42°18' W 083°00'0 0.0 050 / 7 4.2 2.2
2016-Dec-06 18:00N 42°18' W 083°00'0 0.0 060 / 4 5.1 1.5
2016-Dec-06 17:00N 42°18' W 083°00'0 0.0 070 / 7 5.1 1.2
2016-Dec-06 16:00N 42°18' W 083°00'0 0.0 070 / 7 4.7 1.9
2016-Dec-06 15:00N 42°18' W 083°00'4 4.4 060 / 13 4.1 1.7
2016-Dec-06 14:00N 42°18' W 083°06'4 4.4 080 / 13 6.1 2.3
2016-Dec-06 13:00N 42°18' W 083°00'0 0.0 060 / 12 3.6 1.3
2016-Dec-06 12:00N 42°18' W 083°00'0 0.0 060 / 10 3.1 1.0
2016-Dec-06 11:00N 42°18' W 083°00'0 0.0 060 / 8 2.8 0.7
2016-Dec-06 10:00N 42°18' W 083°00'0 0.0 060 / 7 2.8 0.6
2016-Dec-06 09:00N 42°18' W 083°00'0 0.0 060 / 7 3.0 0.6
2016-Dec-06 08:00N 42°18' W 083°00'0 0.0 060 / 7 2.3-0.2
2016-Dec-06 07:00N 42°18' W 083°00'0 0.0 060 / 5 1.8-0.6
2016-Dec-06 06:00N 42°18' W 083°00'0 0.0 090 / 2 1.1-1.5
2016-Dec-06 05:00N 42°18' W 083°00'0 0.0 080 / 3 1.4-1.7
2016-Dec-06 04:00N 42°18' W 083°00'0 0.0 120 / 2 1.1-1.5
2016-Dec-06 03:00N 42°18' W 083°00'0 0.0 2.0-1.2
2016-Dec-06 02:00N 42°18' W 083°00'0 0.0 190 / 1 2.0-1.2
2016-Dec-06 01:00N 42°18' W 083°00'0 0.0 180 / 1 2.5-1.3
2016-Dec-06 00:00N 42°18' W 083°00'4 4.4 230 / 4 3.7-1.3
2016-Dec-05 23:00N 42°18' W 082°54'0 0.0 230 / 91019.0 3.7-1.2
2016-Dec-05 22:00N 42°18' W 082°54'0 0.0 230 / 81018.9 6.3 0.2
2016-Dec-05 21:00N 42°18' W 082°54'7 7.5 220 / 121018.1 4.6-0.1
2016-Dec-05 20:00N 42°24' W 082°48'1110.7 230 / 121017.2 4.9-0.4
2016-Dec-05 19:00N 42°30' W 082°36'1312.8 240 / 81017.4 4.6-0.6
2016-Dec-05 18:00N 42°42' W 082°30'6 6.0 240 / 6 4.4-0.6
2016-Dec-05 17:00N 42°48' W 082°30'7 7.4 250 / 51017.1 4.1-0.2
2016-Dec-05 16:00N 42°54' W 082°24'1818.0 250 / 71016.8 3.9-0.4
2016-Dec-05 15:00N 43°12' W 082°24'1212.0 240 / 91015.9 3.4-0.1
2016-Dec-05 14:00N 43°24' W 082°24'1312.8 250 / 161014.4 3.0 0.4
2016-Dec-05 13:00N 43°36' W 082°18'1212.0 250 / 181013.1 2.6 0.8
2016-Dec-05 12:00N 43°48' W 082°18'1312.8 240 / 231011.0 3.0 1.1
2016-Dec-05 11:00N 44°00' W 082°12'1212.0 250 / 191010.0 3.2 1.3
2016-Dec-05 10:00N 44°12' W 082°12'1312.7 260 / 201009.1 3.8 1.1
2016-Dec-05 09:00N 44°24' W 082°06'1212.0 270 / 151009.0 3.3 1.5
2016-Dec-05 08:00N 44°36' W 082°06'6 6.0 200 / 51009.1 2.1 1.7
2016-Dec-05 07:00N 44°42' W 082°06'1212.0 140 / 201009.3 2.2 1.5
2016-Dec-05 06:00N 44°54' W 082°06'7 7.4 140 / 191010.3 2.0 1.4
2016-Dec-05 05:00N 45°00' W 082°00'1312.7 130 / 221011.0 1.2 0.8
2016-Dec-05 04:00N 45°12' W 081°54'6 6.0 110 / 211011.1 1.6 1.0
2016-Dec-05 03:00N 45°18' W 081°54'8 8.4 080 / 121012.5 1.4 0.9
2016-Dec-05 02:00N 45°18' W 081°42'8 8.4 130 / 121013.9 1.6 0.8
2016-Dec-05 01:00N 45°18' W 081°30'1312.7 090 / 111015.3 1.9 0.9
2016-Dec-05 00:00N 45°18' W 081°12'1312.7 120 / 171017.4 3.6 1.1
2016-Dec-04 23:00N 45°18' W 080°54'1312.7 110 / 141019.1 2.8-0.7
2016-Dec-04 22:00N 45°18' W 080°36'1312.7 090 / 121020.1 1.7-2.5
2016-Dec-04 21:00N 45°18' W 080°18'8 8.4 120 / 101021.4 0.5-4.6
2016-Dec-04 20:00N 45°18' W 080°06'4 4.2 110 / 81022.3 0.9-5.1
2016-Dec-04 19:00N 45°18' W 080°00'4 4.2 120 / 61023.9 -0.2-5.3
2016-Dec-04 18:00N 45°18' W 080°06'8 8.4 100 / 61024.3 -1.8-5.6
2016-Dec-04 17:00N 45°18' W 080°18'8 8.4 080 / 71025.5 -2.9-5.7
2016-Dec-04 16:00N 45°18' W 080°30'1312.7 090 / 81025.9 -2.3-4.6
2016-Dec-04 15:00N 45°06' W 080°36'1312.7 080 / 81025.6 -0.6-3.1
2016-Dec-04 14:00N 44°54' W 080°42'1312.7 050 / 81025.4 1.0-2.1
2016-Dec-04 13:00N 44°42' W 080°48'7 7.4 050 / 101024.8 1.6-1.9
2016-Dec-04 12:00N 44°36' W 080°54'0 0.0 120 / 31025.2 1.0-1.3
2016-Dec-04 11:00N 44°36' W 080°54'0 0.0 050 / 21024.8 1.1-1.7
2016-Dec-04 10:00N 44°36' W 080°54'0 0.0 060 / 31025.2 1.3-1.7
2016-Dec-04 09:00N 44°36' W 080°54'0 0.0 050 / 21025.6 1.6-1.6
2016-Dec-04 08:00N 44°36' W 080°54'0 0.0 060 / 21025.8 1.8-1.0
2016-Dec-04 07:00N 44°36' W 080°54'0 0.0 060 / 31025.5 1.6-0.6
2016-Dec-04 06:00N 44°36' W 080°54'0 0.0 060 / 11025.5 1.7-0.2
2016-Dec-04 05:00N 44°36' W 080°54'0 0.0 060 / 31025.7 1.9 0.1
2016-Dec-04 04:00N 44°36' W 080°54'0 0.0 350 / 31024.6 2.7 0.4
2016-Dec-04 03:00N 44°36' W 080°54'0 0.0 290 / 21024.4 2.4-0.2
2016-Dec-04 02:00N 44°36' W 080°54'0 0.0 330 / 51024.6 2.9 0.1
2016-Dec-04 01:00N 44°36' W 080°54'0 0.0 310 / 11024.7 2.9-0.0
2016-Dec-04 00:00N 44°36' W 080°54'6 6.0 310 / 21024.9 3.5-0.2
2016-Dec-03 23:00N 44°42' W 080°54'1010.4 280 / 91024.5 3.5-0.3
2016-Dec-03 22:00N 44°48' W 080°42'7 7.4 300 / 131023.8 4.1-2.0
2016-Dec-03 21:00N 44°54' W 080°36'1010.4 320 / 101023.4 4.9 0.2
2016-Dec-03 20:00N 45°00' W 080°48'7 7.3 310 / 131022.8 3.6-0.7
2016-Dec-03 19:00N 45°06' W 080°54'1212.0 320 / 111022.4 4.7-0.7
2016-Dec-03 18:00N 45°18' W 080°54'1212.0 330 / 91022.6 2.7-1.9
2016-Dec-03 17:00N 45°30' W 080°54'0 0.0 320 / 111023.1 2.2-1.7
2016-Dec-03 16:00N 45°30' W 080°54'1010.3 320 / 121023.1 1.8-1.9
2016-Dec-03 15:00N 45°24' W 080°42'1010.3 330 / 121023.0 1.6-2.4
2016-Dec-03 14:00N 45°18' W 080°30'1010.3 340 / 111022.2 3.0-1.9
2016-Dec-03 13:00N 45°24' W 080°18'7 7.3 340 / 151021.8 0.3-3.4
2016-Dec-03 12:00N 45°18' W 080°12'8 1.4 320 / 81021.3 -0.3-3.6
2016-Dec-03 06:00N 45°18' W 080°00'0 0.0 300 / 91019.0 0.5-3.3
2016-Dec-03 05:00N 45°18' W 080°00'0 0.0 290 / 121018.4 0.8-3.7
2016-Dec-03 04:00N 45°18' W 080°00'0 0.0 340 / 61018.0 0.2-4.1
2016-Dec-03 03:00N 45°18' W 080°00'0 0.0 330 / 91017.0 0.6-4.3
2016-Dec-03 02:00N 45°18' W 080°00'0 0.0 320 / 91016.4 1.2-3.6
2016-Dec-03 01:00N 45°18' W 080°00'0 0.0 330 / 71015.7 1.4-3.1
2016-Dec-03 00:00N 45°18' W 080°00'0 0.0 300 / 101014.7 2.1-2.3
2016-Dec-02 23:00N 45°18' W 080°00'0 0.0 320 / 71014.1 1.9-2.3
2016-Dec-02 22:00N 45°18' W 080°00'0 0.0 320 / 91013.1 2.0-2.3
2016-Dec-02 21:00N 45°18' W 080°00'0 0.0 280 / 131012.3 3.6-0.0
2016-Dec-02 20:00N 45°18' W 080°00'0 0.0 320 / 61011.2 2.0-0.7
2016-Dec-02 19:00N 45°18' W 080°00'0 0.0 290 / 121010.3 2.7-0.9
2016-Dec-02 18:00N 45°18' W 080°00'0 0.0 290 / 111009.8 5.3-0.6
2016-Dec-02 17:00N 45°18' W 080°00'0 0.0 290 / 131009.8 4.7-0.3
2016-Dec-02 16:00N 45°18' W 080°00'0 0.0 290 / 101009.8 4.8 1.0
2016-Dec-02 15:00N 45°18' W 080°00'0 0.0 300 / 101009.2 1.6-1.2
2016-Dec-02 14:00N 45°18' W 080°00'0 0.0 310 / 101008.8 1.2-1.3
2016-Dec-02 13:00N 45°18' W 080°00'0 0.0 330 / 61008.1 1.2-0.2
2016-Dec-02 12:00N 45°18' W 080°00'0 0.0 290 / 111007.5 1.9 0.5
2016-Dec-02 11:00N 45°18' W 080°00'0 0.0 290 / 91006.7 1.8 0.5
2016-Dec-02 10:00N 45°18' W 080°00'0 0.0 280 / 131005.8 3.4 1.4
2016-Dec-02 09:00N 45°18' W 080°00'0 0.0 290 / 171005.0 4.0 2.6
2016-Dec-02 08:00N 45°18' W 080°00'0 0.0 260 / 161004.6 4.8 3.1
2016-Dec-02 07:00N 45°18' W 080°00'0 0.0 270 / 161004.0 4.8 2.9
2016-Dec-02 06:00N 45°18' W 080°00'0 0.0 270 / 161003.7 5.3 2.8
2016-Dec-02 05:00N 45°18' W 080°00'0 0.0 270 / 181003.5 5.4 3.3
2016-Dec-02 04:00N 45°18' W 080°00'0 0.0 270 / 151003.2 6.0 3.2
2016-Dec-02 03:00N 45°18' W 080°00'0 0.0 260 / 121002.7 5.7 3.8
2016-Dec-02 02:00N 45°18' W 080°00'0 0.0 260 / 131002.5 5.9 3.8
2016-Dec-02 01:00N 45°18' W 080°00'0 0.0 250 / 111002.6 5.9 3.6
2016-Dec-02 00:00N 45°18' W 080°00'0 0.0 240 / 91002.4 5.9 3.3
2016-Dec-01 23:00N 45°18' W 080°00'0 0.0 250 / 111002.3 5.8 2.8
2016-Dec-01 22:00N 45°18' W 080°00'0 0.0 250 / 131001.8 5.5 3.4
2016-Dec-01 21:00N 45°18' W 080°00'0 0.0 250 / 131001.2 5.5 3.4
2016-Dec-01 20:00N 45°18' W 080°00'0 0.0 250 / 101000.5 5.4 3.9
2016-Dec-01 19:00N 45°18' W 080°00'0 0.0 250 / 121000.0 5.2 3.6
2016-Dec-01 18:00N 45°18' W 080°00'0 0.0 250 / 12999.5 5.4 3.9
2016-Dec-01 17:00N 45°18' W 080°00'0 0.0 250 / 13999.5 5.5 3.8
2016-Dec-01 16:00N 45°18' W 080°00'0 0.0 250 / 13999.7 5.4 3.9
2016-Dec-01 15:00N 45°18' W 080°00'0 0.0 250 / 12999.4 5.7 3.9
2016-Dec-01 14:00N 45°18' W 080°00'0 0.0 250 / 11999.2 6.0 3.6
2016-Dec-01 13:00N 45°18' W 080°00'0 0.0 250 / 13998.9 6.1 4.0
2016-Dec-01 12:00N 45°18' W 080°00'0 0.0 250 / 13998.6 6.1 4.2
2016-Dec-01 11:00N 45°18' W 080°00'0 0.0 250 / 15997.8 6.4 4.6
2016-Dec-01 10:00N 45°18' W 080°00'0 0.0 260 / 17997.2 6.7 4.7
2016-Dec-01 09:00N 45°18' W 080°00'0 0.0 260 / 20996.6 6.5 5.7
2016-Dec-01 08:00N 45°18' W 080°00'0 0.0 250 / 11996.2 7.7 7.1
2016-Dec-01 07:00N 45°18' W 080°00'0 0.0 210 / 7995.9 7.3 7.1
2016-Dec-01 06:00N 45°18' W 080°00'0 0.0 270 / 6995.6 7.3 7.2
2016-Dec-01 05:00N 45°18' W 080°00'0 0.0 260 / 10995.4 7.2 7.0
2016-Dec-01 04:00N 45°18' W 080°00'0 0.0 250 / 3995.3 8.4 8.3
2016-Dec-01 03:00N 45°18' W 080°00'0 0.0 190 / 1996.1 8.6 8.5
2016-Dec-01 02:00N 45°18' W 080°00'0 0.0 130 / 2997.0 8.5 8.3
2016-Dec-01 01:00N 45°18' W 080°00'0 0.0 100 / 3997.5 8.5 8.2
2016-Dec-01 00:00N 45°18' W 080°00'0 0.0 100 / 3998.1 8.5 8.2
2016-Nov-30 23:00N 45°18' W 080°00'0 0.0 100 / 7998.5 8.7 8.2
2016-Nov-30 22:00N 45°18' W 080°00'0 0.0 110 / 8999.3 9.0 8.5
2016-Nov-30 21:00N 45°18' W 080°00'0 0.0 120 / 7999.3 9.1 8.4
2016-Nov-30 20:00N 45°18' W 080°00'0 0.0 100 / 5999.9 9.3 8.5
2016-Nov-30 19:00N 45°18' W 080°00'0 0.0 110 / 81000.9 10.5 8.1
2016-Nov-30 18:00N 45°18' W 080°00'0 0.0 130 / 101001.7 11.3 7.9
2016-Nov-30 17:00N 45°18' W 080°00'0 0.0 130 / 91002.1 12.0 7.5
2016-Nov-30 16:00N 45°18' W 080°00'0 0.0 130 / 101003.4 11.3 7.0
2016-Nov-30 15:00N 45°18' W 080°00'0 0.0 120 / 81004.3 10.1 7.1
2016-Nov-30 13:00N 45°18' W 080°00'0 0.0 090 / 71005.2 7.9 6.7
2016-Nov-30 12:00N 45°18' W 080°00'0 0.0 090 / 51005.4 7.4 6.2
2016-Nov-30 11:00N 45°18' W 080°00'0 0.0 090 / 31006.4 6.8 5.8
2016-Nov-30 10:00N 45°18' W 080°00'0 0.0 110 / 31007.2 6.7 5.6
2016-Nov-30 09:00N 45°18' W 080°00'0 0.0 140 / 51007.1 6.3 5.2
2016-Nov-30 08:00N 45°18' W 080°00'0 0.0 140 / 31007.6 6.3 5.1
2016-Nov-30 07:00N 45°18' W 080°00'0 0.0 100 / 51007.9 6.4 5.1
2016-Nov-30 06:00N 45°18' W 080°00'0 0.0 120 / 31008.0 6.5 5.3
2016-Nov-30 05:00N 45°18' W 080°00'0 0.0 110 / 41008.1 7.4 5.4
2016-Nov-30 04:00N 45°18' W 080°00'0 0.0 110 / 61007.9 7.4 5.4
2016-Nov-30 03:00N 45°18' W 080°00'0 0.0 100 / 51007.6 7.9 5.4
2016-Nov-30 02:00N 45°18' W 080°00'0 0.0 130 / 61006.9 8.4 5.3
2016-Nov-30 01:00N 45°18' W 080°00'0 0.0 130 / 61006.4 8.9 5.6
2016-Nov-30 00:00N 45°18' W 080°00'0 0.0 130 / 41006.2 9.3 5.9
2016-Nov-29 23:00N 45°18' W 080°00'0 0.0 140 / 71005.7 10.0 6.1
2016-Nov-29 22:00N 45°18' W 080°00'0 0.0 130 / 51005.0 10.1 6.7
2016-Nov-29 21:00N 45°18' W 080°00'0 0.0 140 / 41004.2 10.6 7.3
2016-Nov-29 20:00N 45°18' W 080°00'0 0.0 180 / 21003.9 11.4 7.6
2016-Nov-29 19:00N 45°18' W 080°00'0 0.0 200 / 71003.4 11.8 7.7
2016-Nov-29 18:00N 45°18' W 080°00'0 0.0 170 / 61003.0 11.1 8.2
2016-Nov-29 17:00N 45°18' W 080°00'0 0.0 170 / 51002.8 9.5 8.0
2016-Nov-29 16:00N 45°18' W 080°00'0 0.0 140 / 91002.6 8.5 7.3
2016-Nov-29 15:00N 45°18' W 080°00'0 0.0 130 / 81002.3 7.5 6.4
2016-Nov-29 14:00N 45°18' W 080°00'0 0.0 130 / 91001.7 6.8 5.7
2016-Nov-29 13:00N 45°18' W 080°00'0 0.0 130 / 101001.2 6.2 5.1
2016-Nov-29 12:00N 45°18' W 080°00'0 0.0 110 / 111001.1 5.1 4.2
2016-Nov-29 11:00N 45°18' W 080°00'   110 / 151001.0 4.5 3.5

Dump ship's entire track history